createdAt,value
2023-05-02T00:04:10.275Z,101666.34
2023-05-02T00:09:04.560Z,101659.81
2023-05-02T00:13:59.110Z,101694.13
2023-05-02T00:18:52.272Z,101599.41
2023-05-02T00:23:45.524Z,101570.13
2023-05-02T00:28:38.832Z,101687.53
2023-05-02T00:33:33.577Z,101632.47
2023-05-02T00:38:26.957Z,101662.56
2023-05-02T00:43:31.793Z,101700.53
2023-05-02T00:48:27.068Z,101705.06
2023-05-02T00:53:23.075Z,101657.63
2023-05-02T00:58:21.738Z,101621.88
2023-05-02T01:03:27.218Z,101584.50
2023-05-02T01:08:29.601Z,101718.19
2023-05-02T01:13:25.952Z,101654.63
2023-05-02T01:18:23.753Z,101637.31
2023-05-02T01:23:27.129Z,101684.69
2023-05-02T01:28:37.093Z,101640.03
2023-05-02T01:33:32.836Z,101675.34
2023-05-02T01:38:27.504Z,101710.63
2023-05-02T01:43:22.357Z,101700.41
2023-05-02T01:48:18.321Z,101645.41
2023-05-02T01:53:14.790Z,101720.28
2023-05-02T01:58:08.887Z,101718.50
2023-05-02T02:03:03.961Z,101636.59
2023-05-02T02:07:57.219Z,101678.41
2023-05-02T02:12:55.373Z,101549.06
2023-05-02T02:17:55.487Z,101733.06
2023-05-02T02:22:54.466Z,101735.56
2023-05-02T02:27:49.109Z,101725.41
2023-05-02T02:32:43.943Z,101619.97
2023-05-02T02:37:42.998Z,101701.47
2023-05-02T02:42:45.388Z,101745.19
2023-05-02T02:47:46.097Z,101697.56
2023-05-02T02:52:54.785Z,101686.69
2023-05-02T02:57:53.878Z,101739.09
2023-05-02T03:02:49.697Z,101749.88
2023-05-02T03:07:43.205Z,101749.72
2023-05-02T03:12:36.889Z,101732.00
2023-05-02T03:17:31.639Z,101749.72
2023-05-02T03:22:26.449Z,101661.97
2023-05-02T03:27:20.143Z,101768.50
2023-05-02T03:32:13.858Z,101609.94
2023-05-02T03:37:09.921Z,101682.28
2023-05-02T03:42:05.678Z,101698.03
2023-05-02T03:46:59.251Z,101688.09
2023-05-02T03:51:56.297Z,101735.00
2023-05-02T03:56:55.681Z,101773.81
2023-05-02T04:01:56.303Z,101680.41
2023-05-02T04:07:02.346Z,101613.88
2023-05-02T04:11:57.361Z,101813.47
2023-05-02T04:16:51.434Z,101792.16
2023-05-02T04:21:52.569Z,101816.41
2023-05-02T04:26:47.954Z,101625.88
2023-05-02T04:31:41.988Z,101773.88
2023-05-02T04:36:37.185Z,101797.88
2023-05-02T04:41:33.280Z,101801.53
2023-05-02T04:46:31.489Z,101791.09
2023-05-02T04:51:25.415Z,101771.03
2023-05-02T04:56:19.295Z,101829.25
2023-05-02T05:01:16.958Z,101786.22
2023-05-02T05:06:12.725Z,101829.88
2023-05-02T05:11:06.674Z,101805.50
2023-05-02T05:16:00.493Z,101800.25
2023-05-02T05:20:58.493Z,101821.88
2023-05-02T05:25:51.657Z,101830.38
2023-05-02T05:30:46.369Z,101835.69
2023-05-02T05:35:43.149Z,101806.34
2023-05-02T05:40:38.288Z,101847.28
2023-05-02T05:45:33.674Z,101809.91
2023-05-02T05:50:27.502Z,101809.56
2023-05-02T05:55:20.858Z,101750.44
2023-05-02T06:00:17.991Z,101758.63
2023-05-02T06:05:15.118Z,101848.41
2023-05-02T06:10:11.073Z,101852.44
2023-05-02T06:15:07.761Z,101845.81
2023-05-02T06:20:06.827Z,101832.75
2023-05-02T06:25:00.996Z,101781.06
2023-05-02T06:29:54.586Z,101842.09
2023-05-02T06:34:47.827Z,101788.06
2023-05-02T06:39:42.450Z,101813.88
2023-05-02T06:44:35.791Z,101835.66
2023-05-02T06:49:29.018Z,101785.28
2023-05-02T06:54:22.341Z,101831.41
2023-05-02T06:59:17.082Z,101839.75
2023-05-02T07:04:10.483Z,101818.69
2023-05-02T07:09:05.075Z,101779.72
2023-05-02T07:13:58.430Z,101809.78
2023-05-02T07:18:53.101Z,101839.50
2023-05-02T07:23:46.345Z,101773.56
2023-05-02T07:28:39.997Z,101801.88
2023-05-02T07:33:33.604Z,101831.25
2023-05-02T07:38:29.043Z,101736.19
2023-05-02T07:43:22.936Z,101841.22
2023-05-02T07:48:16.665Z,101813.88
2023-05-02T07:53:11.086Z,101831.06
2023-05-02T07:58:05.859Z,101798.31
2023-05-02T08:02:59.178Z,101825.09
2023-05-02T08:07:52.536Z,101836.50
2023-05-02T08:12:45.953Z,101825.47
2023-05-02T08:17:40.709Z,101751.50
2023-05-02T08:22:34.023Z,101632.69
2023-05-02T08:27:27.162Z,101750.97
2023-05-02T08:32:20.302Z,101798.94
2023-05-02T08:37:15.130Z,101821.06
2023-05-02T08:42:08.992Z,101829.69
2023-05-02T08:47:04.593Z,101816.19
2023-05-02T08:52:00.631Z,101815.53
2023-05-02T08:56:55.842Z,101782.78
2023-05-02T09:01:51.144Z,101701.69
2023-05-02T09:06:44.368Z,101814.34
2023-05-02T09:11:40.716Z,101714.50
2023-05-02T09:16:40.603Z,101767.59
2023-05-02T09:21:43.485Z,101807.50
2023-05-02T09:26:36.723Z,101770.56
2023-05-02T09:31:54.023Z,101679.34
2023-05-02T09:36:54.598Z,101783.53
2023-05-02T09:41:49.504Z,101759.13
2023-05-02T09:46:43.459Z,101780.31
2023-05-02T09:51:37.053Z,101782.59
2023-05-02T09:56:31.663Z,101741.31
2023-05-02T10:01:25.195Z,101765.88
2023-05-02T10:06:23.462Z,101771.69
2023-05-02T10:11:16.874Z,101752.53
2023-05-02T10:16:14.307Z,101769.13
2023-05-02T10:21:10.246Z,101741.59
2023-05-02T10:26:03.945Z,101733.38
2023-05-02T10:30:58.467Z,101729.28
2023-05-02T10:35:54.645Z,101678.69
2023-05-02T10:40:57.969Z,101731.53
2023-05-02T10:45:55.832Z,101728.13
2023-05-02T10:50:57.320Z,101703.34
2023-05-02T10:56:18.662Z,101752.63
2023-05-02T11:01:36.728Z,101730.47
2023-05-02T11:06:33.712Z,101757.81
2023-05-02T11:11:46.037Z,101748.63
2023-05-02T11:17:12.070Z,101720.38
2023-05-02T11:22:33.596Z,101700.25
2023-05-02T11:27:44.086Z,101748.19
2023-05-02T11:33:24.328Z,101732.41
2023-05-02T11:38:22.642Z,101714.22
2023-05-02T11:43:21.521Z,101721.06
2023-05-02T11:48:17.608Z,101626.72
2023-05-02T11:53:14.825Z,101682.47
2023-05-02T11:58:14.899Z,101693.56
2023-05-02T12:03:08.528Z,101559.81
2023-05-02T12:08:04.013Z,101692.91
2023-05-02T12:13:18.493Z,101604.16
2023-05-02T12:18:12.607Z,101601.47
2023-05-02T12:23:07.201Z,101628.00
2023-05-02T12:28:01.611Z,101678.19
2023-05-02T12:32:59.845Z,101567.75
2023-05-02T12:37:53.599Z,101668.31
2023-05-02T12:43:00.538Z,101645.53
2023-05-02T12:47:53.903Z,101593.78
2023-05-02T12:52:50.089Z,101600.19
2023-05-02T12:57:44.054Z,101560.66
2023-05-02T13:02:38.869Z,101512.47
2023-05-02T13:07:32.018Z,101641.94
2023-05-02T13:12:26.702Z,101628.09
2023-05-02T13:17:20.187Z,101633.09
2023-05-02T13:22:13.526Z,101616.28
2023-05-02T13:27:06.786Z,101618.56
2023-05-02T13:32:04.109Z,101615.78
2023-05-02T13:36:58.038Z,101619.31
2023-05-02T13:41:51.532Z,101608.03
2023-05-02T13:46:44.997Z,101472.16
2023-05-02T13:51:40.623Z,101551.75
2023-05-02T13:56:34.378Z,101533.84
2023-05-02T14:01:28.882Z,101590.53
2023-05-02T14:06:22.875Z,101591.47
2023-05-02T14:11:18.091Z,101562.97
2023-05-02T14:16:11.523Z,101590.31
2023-05-02T14:21:04.936Z,101549.31
2023-05-02T14:25:59.445Z,101563.50
2023-05-02T14:30:54.200Z,101567.22
2023-05-02T14:35:50.031Z,101572.19
2023-05-02T14:40:43.241Z,101565.97
2023-05-02T14:45:36.504Z,101575.00
2023-05-02T14:50:31.155Z,101554.31
2023-05-02T14:55:24.479Z,101521.50
2023-05-02T15:00:18.975Z,101419.53
2023-05-02T15:05:13.157Z,101574.34
2023-05-02T15:10:09.407Z,101583.34
2023-05-02T15:15:02.658Z,101562.22
2023-05-02T15:19:58.352Z,101584.41
2023-05-02T15:24:57.688Z,101498.50
2023-05-02T15:29:52.474Z,101587.25
2023-05-02T15:34:46.910Z,101552.19
2023-05-02T15:39:42.870Z,101590.88
2023-05-02T15:44:39.058Z,101588.00
2023-05-02T15:49:34.697Z,101528.28
2023-05-02T15:54:28.247Z,101588.78
2023-05-02T15:59:21.523Z,101565.41
2023-05-02T16:04:15.651Z,101586.84
2023-05-02T16:09:10.848Z,101508.97
2023-05-02T16:14:04.279Z,101592.75
2023-05-02T16:18:57.505Z,101561.00
2023-05-02T16:23:50.740Z,101544.22
2023-05-02T16:28:45.489Z,101589.91
2023-05-02T16:33:39.277Z,101488.84
2023-05-02T16:38:36.481Z,101601.38
2023-05-02T16:43:29.719Z,101607.66
2023-05-02T16:48:24.623Z,101603.22
2023-05-02T16:53:17.889Z,101534.75
2023-05-02T16:58:11.122Z,101564.25
2023-05-02T17:03:05.624Z,101622.75
2023-05-02T17:08:00.389Z,101645.50
2023-05-02T17:12:56.022Z,101626.72
2023-05-02T17:17:49.425Z,101636.03
2023-05-02T17:22:42.894Z,101634.34
2023-05-02T17:32:40.521Z,101649.47
2023-05-02T17:37:34.014Z,101677.06
2023-05-02T17:42:27.243Z,101681.81
2023-05-02T17:47:29.733Z,101681.31
2023-05-02T17:52:22.918Z,101648.81
2023-05-02T17:57:25.782Z,101661.38
2023-05-02T18:02:18.928Z,101664.03
2023-05-02T18:07:13.446Z,101674.34
2023-05-02T18:12:07.013Z,101679.81
2023-05-02T18:17:00.260Z,101673.97
2023-05-02T18:21:55.623Z,101640.16
2023-05-02T18:26:56.328Z,101655.34
2023-05-02T18:31:52.695Z,101604.25
2023-05-02T18:36:46.225Z,101617.06
2023-05-02T18:41:39.514Z,101717.81
2023-05-02T18:46:36.360Z,101715.56
2023-05-02T18:51:30.260Z,101702.78
2023-05-02T18:56:23.441Z,101625.69
2023-05-02T19:01:20.248Z,101697.44
2023-05-02T19:06:15.333Z,101688.91
2023-05-02T19:11:09.285Z,101738.78
2023-05-02T19:16:02.628Z,101757.75
2023-05-02T19:20:57.337Z,101740.28
2023-05-02T19:25:53.046Z,101691.41
2023-05-02T19:30:49.165Z,101769.38
2023-05-02T19:35:42.589Z,101790.97
2023-05-02T19:40:35.952Z,101766.72
2023-05-02T19:45:30.573Z,101798.66
2023-05-02T19:50:24.494Z,101752.72
2023-05-02T19:55:18.634Z,101690.22
2023-05-02T20:00:17.353Z,101764.75
2023-05-02T20:05:12.812Z,101698.34
2023-05-02T20:10:10.149Z,101723.56
2023-05-02T20:15:08.146Z,101768.66
2023-05-02T20:20:07.330Z,101798.38
2023-05-02T20:25:02.334Z,101789.25
2023-05-02T20:29:56.094Z,101767.31
2023-05-02T20:34:49.357Z,101802.47
2023-05-02T20:39:42.501Z,101809.88
2023-05-02T20:44:36.938Z,101805.22
2023-05-02T20:49:33.278Z,101793.56
2023-05-02T20:54:26.832Z,101755.00
2023-05-02T20:59:20.261Z,101729.44
2023-05-02T21:04:14.892Z,101781.34
2023-05-02T21:09:09.569Z,101791.25
2023-05-02T21:14:02.702Z,101783.72
2023-05-02T21:18:56.043Z,101796.56
2023-05-02T21:23:50.587Z,101729.69
2023-05-02T21:28:43.734Z,101796.97
2023-05-02T21:33:36.872Z,101795.19
2023-05-02T21:38:30.536Z,101764.03
2023-05-02T21:43:25.030Z,101770.75
2023-05-02T21:48:18.490Z,101758.41
2023-05-02T21:53:12.151Z,101755.91
2023-05-02T21:58:05.465Z,101782.22
2023-05-02T22:03:01.743Z,101778.97
2023-05-02T22:07:55.717Z,101721.81
2023-05-02T22:12:48.876Z,101765.56
2023-05-02T22:17:43.377Z,101734.97
2023-05-02T22:22:40.636Z,101761.00
2023-05-02T22:27:33.828Z,101774.13
2023-05-02T22:32:26.969Z,101723.72
2023-05-02T22:37:20.136Z,101728.25
2023-05-02T22:42:14.550Z,101650.31
2023-05-02T22:47:08.586Z,101785.66
2023-05-02T22:52:02.709Z,101788.91
2023-05-02T22:56:55.759Z,101741.44
2023-05-02T23:01:50.873Z,101708.22
2023-05-02T23:06:44.131Z,101738.59
2023-05-02T23:11:37.303Z,101785.19
2023-05-02T23:16:30.501Z,101780.25
2023-05-02T23:21:25.097Z,101695.34
2023-05-02T23:26:18.294Z,101788.22
2023-05-02T23:31:11.489Z,101773.63
2023-05-02T23:36:06.816Z,101777.38
2023-05-02T23:41:01.299Z,101734.34
2023-05-02T23:45:54.481Z,101768.44
2023-05-02T23:50:47.764Z,101771.25
2023-05-02T23:55:41.550Z,101763.13
